Time;durP1;ratioP1;P1;durP2;ratioP2;P2;SDS_P1;SDS_P2;PMS_P1;PMS_P2;Temp;Humidity;BMP_temperature;BMP_pressure;BME280_temperature;BME280_humidity;BME280_pressure;Samples;Min_cycle;Max_cycle;Signal;HPM_P1;HPM_P2
2022/02/09 00:00:13;;;;;;;4.00;0.80;;;8.10;27.90;;;;;;5095227;28;20422;-61
2022/02/09 00:02:49;;;;;;;1.40;0.70;;;8.20;19.10;;;;;;5094013;28;20429;-60
2022/02/09 00:05:29;;;;;;;1.58;0.80;;;8.20;13.50;;;;;;5095578;28;20421;-60
2022/02/09 00:08:02;;;;;;;1.50;0.60;;;8.20;1.00;;;;;;5095258;28;20798;-60
2022/02/09 00:10:32;;;;;;;2.38;0.70;;;8.20;5.90;;;;;;5095543;28;20516;-60
2022/02/09 00:13:20;;;;;;;2.30;0.80;;;8.20;1.00;;;;;;5093448;28;20445;-60
2022/02/09 00:15:53;;;;;;;2.27;0.80;;;8.20;1.00;;;;;;5094444;28;20414;-60
2022/02/09 00:18:31;;;;;;;2.05;0.70;;;8.10;8.90;;;;;;5095139;28;20941;-60
2022/02/09 00:23:57;;;;;;;2.80;0.70;;;7.90;19.30;;;;;;5094115;28;20420;-60
2022/02/09 00:40:33;;;;;;;2.90;0.70;;;8.10;9.50;;;;;;5094694;28;20455;-59
2022/02/09 00:43:30;;;;;;;1.75;0.70;;;8.10;4.90;;;;;;5093688;28;20458;-60
2022/02/09 01:02:44;;;;;;;1.65;0.70;;;8.30;1.00;;;;;;5095629;28;20397;-61
2022/02/09 01:37:59;;;;;;;1.90;0.60;;;8.40;1.00;;;;;;5095318;28;20405;-61
2022/02/09 01:38:56;;;;;;;0.93;0.50;;;8.40;1.00;;;;;;5095470;28;20539;-60
2022/02/09 01:57:48;;;;;;;0.98;0.52;;;8.00;1.00;;;;;;5094358;28;20409;-59
2022/02/09 02:00:16;;;;;;;1.00;0.60;;;8.00;1.00;;;;;;5095246;28;20786;-59
2022/02/09 02:02:43;;;;;;;2.95;0.60;;;8.00;1.00;;;;;;5094490;28;20469;-60
2022/02/09 02:05:11;;;;;;;1.00;0.60;;;8.00;1.00;;;;;;5095354;28;20436;-60
2022/02/09 02:07:46;;;;;;;0.85;0.60;;;8.00;1.00;;;;;;5093931;28;20520;-59
2022/02/09 02:10:15;;;;;;;1.67;0.50;;;8.00;1.00;;;;;;5095432;28;20421;-59
2022/02/09 02:13:06;;;;;;;4.40;0.60;;;8.00;1.00;;;;;;5094375;28;20445;-59
2022/02/09 02:18:14;;;;;;;1.23;0.55;;;7.90;1.00;;;;;;5081617;28;20472;-59
2022/02/09 02:20:53;;;;;;;1.10;0.60;;;7.90;1.00;;;;;;5094932;28;20520;-59
2022/02/09 02:23:38;;;;;;;1.10;0.50;;;7.90;1.00;;;;;;5094516;28;20715;-59
2022/02/09 02:26:18;;;;;;;2.90;0.60;;;7.90;1.00;;;;;;5094869;28;20968;-60
2022/02/09 02:29:10;;;;;;;1.70;0.50;;;7.80;1.00;;;;;;5113302;28;20935;-59
2022/02/09 02:32:00;;;;;;;1.35;0.50;;;7.80;1.00;;;;;;5113172;28;20435;-60
2022/02/09 02:35:01;;;;;;;0.80;0.40;;;7.90;1.00;;;;;;5112160;28;20775;-59
2022/02/09 02:46:30;;;;;;;1.20;0.50;;;7.90;1.00;;;;;;5119285;28;20719;-59
2022/02/09 02:57:26;;;;;;;1.20;0.50;;;7.80;1.00;;;;;;5118360;28;20396;-59
2022/02/09 03:08:34;;;;;;;1.05;0.40;;;8.00;1.00;;;;;;5118388;28;20442;-60
2022/02/09 03:11:21;;;;;;;1.40;0.40;;;8.00;1.00;;;;;;5118764;28;20426;-59
2022/02/09 03:13:55;;;;;;;0.90;0.40;;;8.00;1.00;;;;;;5118819;28;20447;-59
2022/02/09 03:16:34;;;;;;;1.30;0.50;;;8.00;1.00;;;;;;5118477;28;20697;-59
2022/02/09 03:19:23;;;;;;;1.90;0.50;;;8.00;1.00;;;;;;5117723;28;20797;-60
2022/02/09 03:22:01;;;;;;;0.60;0.47;;;8.00;1.00;;;;;;5118421;28;20427;-59
2022/02/09 03:24:39;;;;;;;1.70;0.50;;;8.00;1.00;;;;;;5118447;28;20432;-59
2022/02/09 03:44:01;;;;;;;0.60;0.40;;;8.00;1.00;;;;;;5117615;28;20556;-59
2022/02/09 03:46:48;;;;;;;1.30;0.40;;;8.10;1.00;;;;;;5118173;28;20473;-59
2022/02/09 03:49:30;;;;;;;0.60;0.30;;;8.10;1.00;;;;;;5116894;28;20838;-59
2022/02/09 03:52:06;;;;;;;0.60;0.40;;;8.10;1.00;;;;;;5117903;28;20421;-59
2022/02/09 03:54:38;;;;;;;0.88;0.40;;;8.10;1.00;;;;;;5117582;28;20783;-59
2022/02/09 03:57:21;;;;;;;1.20;0.50;;;8.10;1.00;;;;;;5117620;28;20420;-59
2022/02/09 03:59:47;;;;;;;1.10;0.40;;;8.10;1.00;;;;;;5118242;28;20430;-59
2022/02/09 04:02:16;;;;;;;0.70;0.40;;;8.10;1.00;;;;;;5117539;28;20497;-59
2022/02/09 04:04:46;;;;;;;1.13;0.40;;;8.10;1.00;;;;;;5117185;28;20439;-59
2022/02/09 04:07:13;;;;;;;1.60;0.40;;;8.10;1.00;;;;;;5117463;28;20420;-59
2022/02/09 04:09:46;;;;;;;1.40;0.40;;;8.10;1.00;;;;;;5117947;28;20523;-60
2022/02/09 04:12:26;;;;;;;1.00;0.40;;;8.10;1.00;;;;;;5117514;28;20424;-62
2022/02/09 04:14:58;;;;;;;0.60;0.30;;;8.10;1.00;;;;;;5117220;28;20893;-59
2022/02/09 04:17:34;;;;;;;0.88;0.30;;;8.10;1.00;;;;;;5116678;28;20416;-59
2022/02/09 04:20:19;;;;;;;0.70;0.40;;;8.10;1.00;;;;;;5116724;28;20425;-59
2022/02/09 04:36:44;;;;;;;0.70;0.40;;;8.10;1.00;;;;;;5116922;28;20735;-59
2022/02/09 04:39:20;;;;;;;0.80;0.40;;;8.10;1.00;;;;;;5116949;28;20728;-59
2022/02/09 04:44:40;;;;;;;0.60;0.30;;;8.20;1.00;;;;;;5099336;28;20866;-61
2022/02/09 04:50:15;;;;;;;0.73;0.30;;;8.20;1.00;;;;;;5034375;28;20407;-61
2022/02/09 04:52:59;;;;;;;1.10;0.35;;;8.30;1.00;;;;;;5101194;28;20739;-60
2022/02/09 04:58:13;;;;;;;0.70;0.35;;;8.40;1.00;;;;;;5112183;28;20412;-60
2022/02/09 05:00:50;;;;;;;1.30;0.30;;;8.50;1.00;;;;;;5115227;28;20523;-60
2022/02/09 05:22:55;;;;;;;0.70;0.40;;;8.10;1.00;;;;;;5114615;28;20395;-60
2022/02/09 05:28:13;;;;;;;1.10;0.40;;;7.90;1.00;;;;;;5108921;28;20742;-58
2022/02/09 05:30:46;;;;;;;0.70;0.40;;;7.80;1.00;;;;;;5113608;28;21262;-60
2022/02/09 05:33:13;;;;;;;1.70;0.80;;;7.70;1.00;;;;;;5112178;28;20431;-60
2022/02/09 05:35:42;;;;;;;1.30;0.50;;;7.60;1.00;;;;;;5114509;28;20419;-60
2022/02/09 05:38:11;;;;;;;1.70;0.40;;;7.60;1.00;;;;;;5113276;28;20485;-61
2022/02/09 05:40:39;;;;;;;3.47;0.50;;;7.50;1.00;;;;;;5114998;28;20438;-61
2022/02/09 05:43:07;;;;;;;1.90;0.50;;;7.50;1.00;;;;;;5113936;28;20514;-59
2022/02/09 05:45:48;;;;;;;1.70;0.50;;;7.60;1.00;;;;;;5114914;28;20432;-59
2022/02/09 05:51:02;;;;;;;0.80;0.50;;;7.60;1.00;;;;;;5104463;28;20678;-60
2022/02/09 05:53:41;;;;;;;1.50;0.60;;;7.60;1.00;;;;;;5103288;28;20454;-61
2022/02/09 05:56:20;;;;;;;1.00;0.50;;;7.60;1.00;;;;;;5100502;28;20472;-60
2022/02/09 05:58:50;;;;;;;1.33;0.70;;;7.70;1.00;;;;;;5097663;28;20442;-59
2022/02/09 06:01:17;;;;;;;0.90;0.50;;;7.70;1.00;;;;;;5101303;28;20706;-60
2022/02/09 06:03:43;;;;;;;1.52;0.50;;;7.70;1.00;;;;;;5104046;28;20520;-61
2022/02/09 06:06:10;;;;;;;1.77;0.40;;;7.70;1.00;;;;;;5100412;28;20487;-60
2022/02/09 06:08:39;;;;;;;0.80;0.40;;;7.80;1.00;;;;;;5109792;28;20519;-62
2022/02/09 06:11:12;;;;;;;1.92;0.43;;;7.90;1.00;;;;;;5112349;28;20502;-61
2022/02/09 06:13:58;;;;;;;0.68;0.35;;;7.90;1.00;;;;;;5096649;28;20433;-61
2022/02/09 06:21:54;;;;;;;1.60;0.50;;;8.10;1.00;;;;;;5112165;28;20402;-60
2022/02/09 06:24:22;;;;;;;0.90;0.50;;;8.00;1.00;;;;;;5098265;28;20464;-59
2022/02/09 06:26:49;;;;;;;1.17;0.50;;;8.00;1.00;;;;;;5095447;28;20513;-59
2022/02/09 06:29:17;;;;;;;1.10;0.50;;;7.90;1.00;;;;;;5108038;28;20942;-61
2022/02/09 06:31:46;;;;;;;0.90;0.50;;;7.90;1.00;;;;;;5108615;28;20832;-59
2022/02/09 06:34:16;;;;;;;2.25;0.57;;;8.00;1.00;;;;;;5096393;28;20433;-61
2022/02/09 06:36:47;;;;;;;1.50;0.57;;;7.90;1.00;;;;;;5110813;28;20424;-59
2022/02/09 06:39:15;;;;;;;1.30;0.50;;;7.80;1.00;;;;;;5112226;28;20468;-60
2022/02/09 06:41:44;;;;;;;1.50;0.50;;;7.90;1.00;;;;;;5115481;28;20412;-59
2022/02/09 06:44:12;;;;;;;1.70;0.50;;;7.90;1.00;;;;;;5096238;28;20430;-60
2022/02/09 06:46:39;;;;;;;0.93;0.50;;;7.80;1.00;;;;;;5104064;28;20453;-60
2022/02/09 06:49:08;;;;;;;2.90;0.63;;;7.80;1.00;;;;;;5078941;28;20438;-60
2022/02/09 06:51:38;;;;;;;1.63;0.50;;;7.90;1.00;;;;;;5094351;28;20877;-60
2022/02/09 06:54:11;;;;;;;1.40;0.50;;;8.10;1.00;;;;;;5094639;28;20457;-60
2022/02/09 06:56:45;;;;;;;1.90;0.70;;;8.10;1.00;;;;;;5097080;28;20461;-58
2022/02/09 06:59:19;;;;;;;1.77;0.57;;;8.20;1.00;;;;;;5105655;28;20892;-59
2022/02/09 07:01:46;;;;;;;1.90;0.60;;;8.10;1.00;;;;;;5109921;28;20428;-59
2022/02/09 07:04:13;;;;;;;1.50;0.60;;;7.90;1.00;;;;;;5105689;28;20503;-59
2022/02/09 07:06:40;;;;;;;0.95;0.70;;;7.60;1.00;;;;;;5098637;28;20426;-60
2022/02/09 07:09:07;;;;;;;2.50;0.60;;;7.50;1.00;;;;;;5105597;28;20436;-60
2022/02/09 07:11:34;;;;;;;5.00;0.70;;;7.50;1.00;;;;;;5104237;28;20514;-60
2022/02/09 07:14:01;;;;;;;2.00;0.60;;;7.40;1.00;;;;;;5111437;28;20462;-60
2022/02/09 07:16:30;;;;;;;1.73;0.60;;;7.40;1.00;;;;;;5095173;28;20512;-60
2022/02/09 07:18:57;;;;;;;1.40;0.70;;;7.30;1.00;;;;;;5107120;28;20436;-60
2022/02/09 07:21:27;;;;;;;1.58;0.70;;;7.20;1.00;;;;;;5106902;28;20486;-59
2022/02/09 07:23:59;;;;;;;1.57;0.70;;;7.10;1.00;;;;;;5094101;28;20760;-57
2022/02/09 07:26:29;;;;;;;1.30;0.60;;;7.00;1.00;;;;;;5093683;28;20475;-62
2022/02/09 07:28:57;;;;;;;1.35;0.60;;;7.00;1.00;;;;;;5099160;28;20812;-60
2022/02/09 07:31:24;;;;;;;1.40;0.70;;;7.00;1.00;;;;;;5115500;28;20420;-57
2022/02/09 07:33:53;;;;;;;2.80;0.70;;;7.00;1.00;;;;;;5101633;28;20525;-58
2022/02/09 07:36:20;;;;;;;1.20;0.70;;;6.90;1.00;;;;;;5097291;28;20779;-59
2022/02/09 07:38:47;;;;;;;1.30;0.63;;;6.90;1.00;;;;;;5094292;28;20429;-58
2022/02/09 07:41:14;;;;;;;1.48;0.70;;;6.80;1.00;;;;;;5099626;28;20455;-59
2022/02/09 07:43:50;;;;;;;1.27;0.80;;;6.80;1.00;;;;;;5113007;28;20790;-59
2022/02/09 07:46:34;;;;;;;3.47;0.77;;;6.70;1.00;;;;;;5093010;28;20433;-59
2022/02/09 07:49:06;;;;;;;3.60;0.70;;;6.70;1.00;;;;;;5093355;28;20995;-59
2022/02/09 07:54:20;;;;;;;2.40;0.70;;;6.70;1.00;;;;;;5083751;28;20755;-59
2022/02/09 07:56:46;;;;;;;2.47;0.90;;;6.70;1.00;;;;;;5102663;28;20513;-55
2022/02/09 07:59:15;;;;;;;1.08;0.70;;;6.70;1.00;;;;;;5099833;28;20430;-56
2022/02/09 08:01:42;;;;;;;1.85;0.60;;;6.70;1.00;;;;;;5105456;28;20517;-56
2022/02/09 08:04:10;;;;;;;2.50;0.80;;;6.70;1.00;;;;;;5107176;28;20493;-56
2022/02/09 08:06:38;;;;;;;1.95;0.70;;;6.80;1.00;;;;;;5112061;28;20432;-55
2022/02/09 08:09:11;;;;;;;1.15;0.60;;;6.90;1.00;;;;;;5096873;28;20463;-56
2022/02/09 08:11:45;;;;;;;2.88;0.80;;;6.90;1.00;;;;;;5093130;28;20421;-54
2022/02/09 08:28:19;;;;;;;1.20;0.65;;;7.20;1.00;;;;;;5107420;28;20667;-57
2022/02/09 08:31:12;;;;;;;1.98;0.77;;;7.20;1.00;;;;;;5106105;28;20432;-57
2022/02/09 08:33:39;;;;;;;3.05;0.73;;;7.40;1.00;;;;;;5094263;28;20418;-57
2022/02/09 08:36:07;;;;;;;1.40;0.70;;;7.40;1.00;;;;;;5108346;28;20424;-57
2022/02/09 08:38:35;;;;;;;2.70;0.80;;;7.40;1.00;;;;;;5095835;28;20422;-56
2022/02/09 08:41:02;;;;;;;1.80;0.70;;;7.30;1.00;;;;;;5093282;28;20536;-57
2022/02/09 08:43:29;;;;;;;1.50;1.10;;;7.30;1.00;;;;;;5095540;28;20516;-57
2022/02/09 08:45:56;;;;;;;1.60;0.70;;;7.30;1.00;;;;;;5097966;28;20440;-56
2022/02/09 08:48:23;;;;;;;1.58;0.70;;;7.30;1.00;;;;;;5099529;28;20520;-58
2022/02/09 08:50:51;;;;;;;1.65;0.70;;;7.40;1.00;;;;;;5095989;28;20528;-56
2022/02/09 08:53:21;;;;;;;2.20;0.80;;;7.40;1.00;;;;;;5098210;28;20520;-59
2022/02/09 08:55:48;;;;;;;1.50;0.70;;;7.40;1.00;;;;;;5093757;28;20426;-56
2022/02/09 08:58:18;;;;;;;2.80;0.70;;;7.50;1.00;;;;;;5104676;28;20924;-56
2022/02/09 09:00:46;;;;;;;0.90;0.63;;;7.60;1.00;;;;;;5090847;28;20870;-57
2022/02/09 09:03:17;;;;;;;1.80;0.60;;;7.70;1.00;;;;;;5091756;28;21016;-57
2022/02/09 09:05:47;;;;;;;1.65;0.50;;;7.70;1.00;;;;;;5104838;28;20799;-56
2022/02/09 09:11:42;;;;;;;1.50;0.60;;;7.80;1.00;;;;;;5090563;28;20487;-57
2022/02/09 09:58:25;;;;;;;3.33;0.70;;;8.90;99.90;;;;;;5109128;28;20402;-59
2022/02/09 10:32:01;;;;;;;2.08;0.50;;;9.70;1.00;;;;;;5092254;28;20470;-60
2022/02/09 10:34:36;;;;;;;3.58;0.60;;;9.80;1.00;;;;;;5099467;28;20439;-60
2022/02/09 10:37:06;;;;;;;1.70;0.55;;;10.00;1.00;;;;;;5114565;28;20427;-60
2022/02/09 10:39:46;;;;;;;1.55;0.60;;;10.10;15.80;;;;;;5099319;28;20426;-60
2022/02/09 10:42:16;;;;;;;1.75;0.60;;;10.10;1.00;;;;;;5097911;28;20432;-60
2022/02/09 10:44:47;;;;;;;1.27;0.50;;;10.10;1.00;;;;;;5095471;28;20491;-60
2022/02/09 10:47:21;;;;;;;2.13;0.50;;;10.20;1.00;;;;;;5099703;28;20433;-60
2022/02/09 10:50:12;;;;;;;1.10;0.50;;;10.20;99.90;;;;;;5108081;28;20416;-59
2022/02/09 10:52:41;;;;;;;1.10;0.50;;;10.30;99.90;;;;;;5100793;28;21002;-59
2022/02/09 10:55:30;;;;;;;0.90;0.50;;;10.40;99.90;;;;;;5112018;28;20454;-60
2022/02/09 10:57:57;;;;;;;0.80;0.40;;;10.40;99.90;;;;;;5095964;28;20464;-60
2022/02/09 11:00:25;;;;;;;0.77;0.50;;;10.40;90.50;;;;;;5102897;28;20942;-59
2022/02/09 11:02:52;;;;;;;1.40;0.50;;;10.50;1.00;;;;;;5116769;28;20420;-59
2022/02/09 11:05:21;;;;;;;0.75;0.50;;;10.50;99.90;;;;;;5105695;28;20524;-59
2022/02/09 11:07:49;;;;;;;0.90;0.50;;;10.70;6.50;;;;;;5106372;28;20513;-60
2022/02/09 11:10:16;;;;;;;2.00;0.50;;;10.80;1.00;;;;;;5100339;28;20594;-60
2022/02/09 11:12:45;;;;;;;3.00;0.60;;;10.80;1.00;;;;;;5105510;28;20470;-60
2022/02/09 11:15:17;;;;;;;1.50;0.50;;;10.90;1.00;;;;;;5102970;28;20431;-60
2022/02/09 11:17:47;;;;;;;2.03;0.50;;;10.90;1.00;;;;;;5103713;28;20433;-59
2022/02/09 11:20:19;;;;;;;1.40;0.40;;;11.00;1.00;;;;;;5100057;28;20872;-60
2022/02/09 11:22:48;;;;;;;0.88;0.50;;;11.10;1.00;;;;;;5102194;28;20444;-60
2022/02/09 11:25:20;;;;;;;1.92;0.60;;;11.30;1.00;;;;;;5093928;28;21062;-59
2022/02/09 11:27:53;;;;;;;0.70;0.50;;;11.60;1.00;;;;;;5108936;28;21049;-59
2022/02/09 11:30:31;;;;;;;1.00;0.50;;;11.80;1.00;;;;;;5112294;28;20422;-60
2022/02/09 11:33:18;;;;;;;0.80;0.40;;;11.80;99.90;;;;;;5091854;28;20500;-60
2022/02/09 11:36:16;;;;;;;1.35;0.60;;;12.00;99.90;;;;;;5090943;28;20429;-60
2022/02/09 11:38:49;;;;;;;0.90;0.50;;;12.10;99.90;;;;;;5098776;28;20540;-60
2022/02/09 11:41:20;;;;;;;1.77;1.10;;;12.20;99.90;;;;;;5094327;28;20429;-60
2022/02/09 11:46:47;;;;;;;0.70;0.43;;;12.50;99.90;;;;;;5112451;28;20416;-60
2022/02/09 11:52:18;;;;;;;2.17;0.40;;;12.80;99.90;;;;;;5093252;28;20487;-61
2022/02/09 11:55:05;;;;;;;1.40;0.50;;;12.80;99.90;;;;;;5094930;28;20486;-60
2022/02/09 12:10:03;;;;;;;1.20;0.40;;;13.50;44.00;;;;;;5104275;28;20413;-59
2022/02/09 12:12:50;;;;;;;1.30;0.30;;;13.70;26.20;;;;;;5100609;28;20422;-58
2022/02/09 12:15:45;;;;;;;1.20;0.40;;;13.80;11.80;;;;;;5102467;28;20727;-59
2022/02/09 12:18:25;;;;;;;0.85;0.50;;;13.70;6.50;;;;;;5095251;28;20460;-59
2022/02/09 12:21:03;;;;;;;1.10;0.60;;;13.80;6.90;;;;;;5099791;28;20451;-59
2022/02/09 12:23:41;;;;;;;1.48;0.63;;;13.80;9.30;;;;;;5100359;28;20896;-59
2022/02/09 12:26:12;;;;;;;1.02;0.60;;;13.90;1.00;;;;;;5098721;28;20434;-59
2022/02/09 12:28:44;;;;;;;1.30;0.60;;;14.00;1.00;;;;;;5094280;28;20881;-59
2022/02/09 12:31:13;;;;;;;0.90;0.50;;;14.00;1.00;;;;;;5097908;28;20435;-59
2022/02/09 12:33:47;;;;;;;1.00;0.50;;;14.10;1.00;;;;;;5102418;28;20907;-59
2022/02/09 12:36:18;;;;;;;2.10;0.60;;;14.20;1.00;;;;;;5105795;28;20434;-60
2022/02/09 12:38:47;;;;;;;1.10;0.60;;;14.10;1.00;;;;;;5103826;28;21090;-59
2022/02/09 12:41:16;;;;;;;1.65;0.50;;;14.30;1.00;;;;;;5099815;28;20448;-59
2022/02/09 12:43:56;;;;;;;1.75;0.40;;;14.40;1.00;;;;;;5093972;28;20504;-59
2022/02/09 12:46:26;;;;;;;0.75;0.50;;;14.30;1.00;;;;;;5092141;28;20723;-59
2022/02/09 12:48:54;;;;;;;1.00;0.50;;;14.30;1.00;;;;;;5097491;28;20430;-60
2022/02/09 12:51:28;;;;;;;0.95;0.50;;;14.20;1.00;;;;;;5097748;28;20434;-59
2022/02/09 12:53:56;;;;;;;0.90;0.50;;;14.00;1.00;;;;;;5099369;28;20422;-59
2022/02/09 12:56:25;;;;;;;0.70;0.50;;;13.90;1.00;;;;;;5104088;28;20512;-59
2022/02/09 12:59:02;;;;;;;0.90;0.50;;;13.80;1.00;;;;;;5101457;28;20420;-58
2022/02/09 13:01:40;;;;;;;1.25;0.50;;;13.90;1.00;;;;;;5106904;28;20456;-58
2022/02/09 13:04:07;;;;;;;1.95;0.50;;;13.90;1.00;;;;;;5110773;28;20424;-60
2022/02/09 13:06:34;;;;;;;0.80;0.40;;;13.80;1.00;;;;;;5097512;28;20507;-61
2022/02/09 13:09:01;;;;;;;1.00;0.50;;;13.80;1.00;;;;;;5108028;28;20910;-63
2022/02/09 13:11:30;;;;;;;1.10;0.50;;;13.70;1.00;;;;;;5097074;28;20491;-62
2022/02/09 13:14:06;;;;;;;1.93;0.57;;;13.70;1.00;;;;;;5092159;28;20479;-62
2022/02/09 13:16:51;;;;;;;1.27;0.50;;;13.70;1.00;;;;;;5090551;28;20428;-62
2022/02/09 13:19:27;;;;;;;3.10;0.50;;;13.50;1.00;;;;;;5093306;28;20422;-62
2022/02/09 14:11:10;;;;;;;0.85;0.40;;;13.10;4.60;;;;;;5090207;28;20701;-62
2022/02/09 14:23:35;;;;;;;0.75;0.40;;;13.00;24.80;;;;;;5043095;28;20394;-62
2022/02/09 14:52:39;;;;;;;0.80;0.40;;;12.60;99.90;;;;;;5095995;28;20425;-61
2022/02/09 14:55:24;;;;;;;1.80;0.40;;;12.50;99.90;;;;;;5095691;28;20426;-61
2022/02/09 14:58:03;;;;;;;1.40;0.40;;;12.50;99.90;;;;;;5097751;28;20418;-61
2022/02/09 15:00:31;;;;;;;1.48;0.40;;;12.40;99.90;;;;;;5093029;28;20922;-61
2022/02/09 15:03:05;;;;;;;2.10;0.50;;;12.40;99.90;;;;;;5101740;28;20452;-61
2022/02/09 15:08:24;;;;;;;2.30;0.40;;;12.30;99.90;;;;;;5113675;28;20840;-61
2022/02/09 15:11:04;;;;;;;1.95;0.88;;;12.30;99.90;;;;;;5115703;28;20716;-59
2022/02/09 15:13:40;;;;;;;2.47;0.68;;;12.30;99.90;;;;;;5113739;28;20416;-59
2022/02/09 15:16:15;;;;;;;1.10;0.50;;;12.30;99.90;;;;;;5114377;28;20427;-59
2022/02/09 15:21:59;;;;;;;0.77;0.50;;;12.30;99.90;;;;;;5107240;28;20835;-59
2022/02/09 15:24:30;;;;;;;1.42;0.50;;;12.20;99.90;;;;;;5109300;28;20613;-59
2022/02/09 15:27:02;;;;;;;1.00;0.50;;;12.20;99.90;;;;;;5113786;28;20436;-60
2022/02/09 15:29:36;;;;;;;1.50;0.50;;;12.20;99.90;;;;;;5114375;28;20416;-59
2022/02/09 15:32:06;;;;;;;1.38;0.70;;;12.20;99.90;;;;;;5114829;28;20527;-60
2022/02/09 15:34:41;;;;;;;2.22;0.70;;;12.20;99.90;;;;;;5111874;28;20839;-59
2022/02/09 15:37:14;;;;;;;3.75;2.00;;;12.20;99.90;;;;;;5111064;28;20822;-58
2022/02/09 15:39:45;;;;;;;0.80;0.50;;;12.10;99.90;;;;;;5110027;28;20450;-59
2022/02/09 15:56:33;;;;;;;1.52;0.80;;;11.90;1.00;;;;;;5107850;28;20420;-58
2022/02/09 16:10:08;;;;;;;1.98;0.90;;;11.80;1.00;;;;;;5106279;28;20405;-58
2022/02/09 16:21:40;;;;;;;3.80;0.70;;;11.40;99.90;;;;;;5113375;28;20803;-60
2022/02/09 16:24:11;;;;;;;3.30;0.70;;;11.40;1.00;;;;;;5113458;28;20412;-58
2022/02/09 16:37:52;;;;;;;2.90;0.80;;;11.00;1.00;;;;;;5097483;28;20402;-59
2022/02/09 16:48:33;;;;;;;2.05;0.73;;;10.70;99.90;;;;;;5085230;28;20504;-59
2022/02/09 16:51:10;;;;;;;2.47;0.70;;;10.70;1.00;;;;;;5100114;28;20450;-60
2022/02/09 16:53:47;;;;;;;1.50;0.70;;;10.60;14.20;;;;;;5107157;28;20495;-62
2022/02/09 16:56:44;;;;;;;3.20;0.70;;;10.60;99.90;;;;;;5100700;28;20428;-59
2022/02/09 17:18:46;;;;;;;2.30;0.90;;;10.30;99.90;;;;;;5095866;28;20441;-59
2022/02/09 17:21:17;;;;;;;2.70;1.00;;;10.10;99.90;;;;;;5089520;28;20566;-59
2022/02/09 17:23:45;;;;;;;1.90;1.00;;;10.10;99.90;;;;;;5095934;28;20581;-60
2022/02/09 17:26:12;;;;;;;2.08;0.80;;;10.10;99.90;;;;;;5089421;28;20528;-61
2022/02/09 17:28:39;;;;;;;1.90;0.80;;;10.10;99.90;;;;;;5092625;28;20434;-61
2022/02/09 17:31:21;;;;;;;2.10;0.70;;;10.00;99.90;;;;;;5095973;28;20875;-60
2022/02/09 17:34:06;;;;;;;1.33;0.80;;;10.00;1.00;;;;;;5097652;28;20539;-60
2022/02/09 17:36:48;;;;;;;3.22;1.20;;;10.00;99.90;;;;;;5104048;28;20512;-61
2022/02/09 17:53:21;;;;;;;3.63;1.40;;;9.90;1.00;;;;;;5098645;28;20460;-60
2022/02/09 17:56:07;;;;;;;2.92;0.82;;;9.90;1.00;;;;;;5051750;28;20970;-59
2022/02/09 17:58:39;;;;;;;2.30;0.80;;;9.90;1.00;;;;;;5097928;28;20420;-60
2022/02/09 18:01:07;;;;;;;2.42;0.90;;;9.90;1.00;;;;;;5095401;28;20440;-60
2022/02/09 18:03:34;;;;;;;3.60;1.00;;;9.80;1.00;;;;;;5093609;28;21229;-59
2022/02/09 18:06:13;;;;;;;1.50;0.85;;;9.70;1.00;;;;;;5104994;28;20530;-58
2022/02/09 18:08:49;;;;;;;2.50;0.90;;;9.80;1.00;;;;;;5103680;28;20727;-59
2022/02/09 18:11:28;;;;;;;1.70;0.90;;;9.70;1.00;;;;;;5098442;28;20437;-58
2022/02/09 18:30:34;;;;;;;2.70;0.90;;;9.50;1.00;;;;;;5108200;28;20839;-60
2022/02/09 18:33:24;;;;;;;2.28;1.00;;;9.50;1.00;;;;;;5096958;28;20534;-59
2022/02/09 18:39:16;;;;;;;4.80;1.00;;;9.40;1.00;;;;;;5107622;28;20437;-59
2022/02/09 18:44:24;;;;;;;1.80;0.90;;;9.30;1.00;;;;;;5103870;28;20400;-59
2022/02/09 18:47:09;;;;;;;1.48;0.80;;;9.20;1.00;;;;;;5106961;28;20753;-59
2022/02/09 19:03:28;;;;;;;9.07;1.30;;;9.10;1.00;;;;;;5081635;28;20417;-59
2022/02/09 19:06:00;;;;;;;4.65;1.00;;;9.00;1.00;;;;;;5104172;28;20433;-59
2022/02/09 19:08:49;;;;;;;4.10;0.90;;;8.90;1.00;;;;;;5100034;28;20433;-59
2022/02/09 19:16:49;;;;;;;2.30;0.90;;;8.50;1.00;;;;;;5105228;28;20515;-59
2022/02/09 19:28:32;;;;;;;2.90;0.90;;;8.30;1.00;;;;;;5103216;28;20499;-61
2022/02/09 19:30:46;;;;;;;2.05;0.90;;;8.20;1.00;;;;;;5096892;28;20417;-59
2022/02/09 19:47:27;;;;;;;2.00;0.80;;;7.80;1.00;;;;;;5096729;28;20488;-60
2022/02/09 19:52:59;;;;;;;1.67;1.00;;;7.60;1.00;;;;;;5107301;28;20392;-59
2022/02/09 19:55:35;;;;;;;2.58;0.90;;;7.60;1.00;;;;;;5104574;28;20439;-59
2022/02/09 19:58:02;;;;;;;2.45;1.02;;;7.50;1.00;;;;;;5102832;28;20439;-60
2022/02/09 20:00:32;;;;;;;2.40;0.90;;;7.40;1.00;;;;;;5103635;28;20432;-59
2022/02/09 20:03:01;;;;;;;1.90;0.80;;;7.40;3.50;;;;;;5097649;28;20501;-59
2022/02/09 20:05:28;;;;;;;2.83;0.95;;;7.30;12.10;;;;;;5103899;28;20939;-59
2022/02/09 20:07:56;;;;;;;3.00;0.90;;;7.30;13.60;;;;;;5099901;28;20425;-59
2022/02/09 20:10:24;;;;;;;2.55;0.90;;;7.30;16.90;;;;;;5101698;28;20437;-60
2022/02/09 20:12:51;;;;;;;2.60;1.00;;;7.20;21.50;;;;;;5094968;28;20417;-60
2022/02/09 20:15:18;;;;;;;2.22;0.90;;;7.20;22.70;;;;;;5094024;28;20430;-60
2022/02/09 20:17:47;;;;;;;1.60;1.00;;;7.20;24.40;;;;;;5096057;28;20500;-59
2022/02/09 20:20:23;;;;;;;2.30;1.00;;;7.20;28.40;;;;;;5094250;28;20878;-60
2022/02/09 20:22:51;;;;;;;2.10;1.02;;;7.20;29.80;;;;;;5095634;28;20422;-61
2022/02/09 20:25:19;;;;;;;2.50;1.10;;;7.20;36.20;;;;;;5093858;28;20433;-60
2022/02/09 20:27:52;;;;;;;1.60;1.00;;;7.20;30.50;;;;;;5101809;28;20432;-60
2022/02/09 20:30:23;;;;;;;1.70;1.20;;;7.20;30.80;;;;;;5110066;28;20494;-59
2022/02/09 20:32:51;;;;;;;4.20;1.20;;;7.20;27.30;;;;;;5094792;28;20513;-60
2022/02/09 20:35:21;;;;;;;2.28;1.10;;;7.20;21.40;;;;;;5093135;28;20520;-60
2022/02/09 20:37:50;;;;;;;1.85;1.00;;;7.20;26.20;;;;;;5094818;28;20417;-59
2022/02/09 20:40:24;;;;;;;2.38;1.17;;;7.20;25.40;;;;;;5093203;28;20499;-60
2022/02/09 20:42:56;;;;;;;3.03;1.00;;;7.20;25.80;;;;;;5095217;28;20422;-60
2022/02/09 20:45:29;;;;;;;2.10;1.10;;;7.20;21.10;;;;;;5093470;28;20444;-60
2022/02/09 20:48:03;;;;;;;2.80;1.10;;;7.20;23.30;;;;;;5094196;28;20905;-60
2022/02/09 20:50:32;;;;;;;2.90;0.95;;;7.20;19.70;;;;;;5093636;28;20436;-59
2022/02/09 20:53:02;;;;;;;1.80;1.00;;;7.20;12.00;;;;;;5095874;28;20437;-60
2022/02/09 20:55:30;;;;;;;2.80;1.20;;;7.20;4.60;;;;;;5094782;28;20793;-60
2022/02/09 20:57:57;;;;;;;3.40;1.00;;;7.20;1.00;;;;;;5096159;28;20410;-60
2022/02/09 21:00:36;;;;;;;1.45;0.90;;;7.30;1.00;;;;;;5094109;28;20528;-60
2022/02/09 21:03:16;;;;;;;2.10;0.80;;;7.30;1.00;;;;;;5094201;28;20421;-60
2022/02/09 21:05:51;;;;;;;2.58;1.10;;;7.30;1.00;;;;;;5094565;28;20438;-59
2022/02/09 21:08:34;;;;;;;1.80;0.90;;;7.30;1.00;;;;;;5094124;28;20472;-58
2022/02/09 21:11:10;;;;;;;1.80;0.90;;;7.30;1.00;;;;;;5095391;28;20429;-59
2022/02/09 21:13:47;;;;;;;2.75;1.00;;;7.30;1.00;;;;;;5093281;28;20521;-59
2022/02/09 21:16:24;;;;;;;3.10;1.00;;;7.30;1.00;;;;;;5093505;28;20721;-59
2022/02/09 21:22:00;;;;;;;3.15;1.05;;;7.30;1.00;;;;;;5057530;28;20390;-60
2022/02/09 21:44:51;;;;;;;1.60;0.95;;;6.90;1.00;;;;;;5095209;28;20405;-59
2022/02/09 21:55:43;;;;;;;1.65;1.00;;;6.80;1.00;;;;;;5092865;28;20442;-59
2022/02/09 21:58:21;;;;;;;2.20;1.00;;;6.70;1.00;;;;;;5091680;28;20426;-59
2022/02/09 22:01:13;;;;;;;1.75;1.00;;;6.70;1.00;;;;;;5093172;28;20425;-59
2022/02/09 22:06:52;;;;;;;2.03;0.90;;;6.70;1.00;;;;;;5092982;28;20401;-59
2022/02/09 22:20:25;;;;;;;2.50;1.00;;;6.60;1.00;;;;;;5093382;28;20413;-60
2022/02/09 22:23:05;;;;;;;3.45;1.10;;;6.60;1.00;;;;;;5093192;28;20417;-59
2022/02/09 22:28:23;;;;;;;1.73;1.02;;;6.60;1.00;;;;;;5093565;28;20583;-59
2022/02/09 22:47:56;;;;;;;2.70;1.20;;;6.40;1.00;;;;;;5108834;28;20492;-59
2022/02/09 22:50:44;;;;;;;3.20;1.15;;;6.40;1.00;;;;;;5109734;28;20421;-60
2022/02/09 22:55:55;;;;;;;2.05;0.98;;;6.40;1.00;;;;;;5109036;28;20400;-59
2022/02/09 22:58:22;;;;;;;3.42;1.00;;;6.40;1.00;;;;;;5109268;28;20874;-60
2022/02/09 23:00:57;;;;;;;1.40;0.95;;;6.40;1.00;;;;;;5110276;28;20421;-59
2022/02/09 23:03:29;;;;;;;1.73;0.90;;;6.40;1.00;;;;;;5109557;28;20425;-59
2022/02/09 23:09:18;;;;;;;2.40;0.90;;;6.40;1.00;;;;;;5094455;28;20505;-59
2022/02/09 23:12:05;;;;;;;2.63;1.30;;;6.30;1.00;;;;;;5111490;28;20422;-59
2022/02/09 23:14:44;;;;;;;2.28;1.10;;;6.30;1.00;;;;;;5111487;28;20429;-60
2022/02/09 23:17:59;;;;;;;1.67;1.00;;;6.30;1.00;;;;;;5111580;28;20737;-59
2022/02/09 23:26:30;;;;;;;1.90;1.10;;;6.20;1.00;;;;;;5047750;28;20422;-58
2022/02/09 23:57:04;;;;;;;1.50;1.00;;;6.00;1.00;;;;;;5095018;28;20709;-58
